sensor_id;sensor_type;location;lat;lon;timestamp;P1;durP1;ratioP1;P2;durP2;ratioP2
6007;SDS011;3032;49.484;11.112;2023-07-13T00:00:28;2.03;;;1.90;;
6007;SDS011;3032;49.484;11.112;2023-07-13T00:02:55;2.70;;;1.98;;
6007;SDS011;3032;49.484;11.112;2023-07-13T00:05:21;2.00;;;1.80;;
6007;SDS011;3032;49.484;11.112;2023-07-13T00:07:48;2.30;;;1.55;;
6007;SDS011;3032;49.484;11.112;2023-07-13T00:10:14;2.40;;;1.85;;
6007;SDS011;3032;49.484;11.112;2023-07-13T00:12:41;2.00;;;1.75;;
6007;SDS011;3032;49.484;11.112;2023-07-13T00:15:10;2.35;;;2.08;;
6007;SDS011;3032;49.484;11.112;2023-07-13T00:17:51;1.80;;;1.70;;
6007;SDS011;3032;49.484;11.112;2023-07-13T00:20:19;1.88;;;1.60;;
6007;SDS011;3032;49.484;11.112;2023-07-13T00:22:50;4.82;;;1.67;;
6007;SDS011;3032;49.484;11.112;2023-07-13T00:25:18;2.25;;;2.05;;
6007;SDS011;3032;49.484;11.112;2023-07-13T00:27:46;6.00;;;2.30;;
6007;SDS011;3032;49.484;11.112;2023-07-13T00:30:13;2.58;;;1.60;;
6007;SDS011;3032;49.484;11.112;2023-07-13T00:32:39;2.50;;;1.90;;
6007;SDS011;3032;49.484;11.112;2023-07-13T00:35:05;2.37;;;2.17;;
6007;SDS011;3032;49.484;11.112;2023-07-13T00:37:32;2.25;;;1.83;;
6007;SDS011;3032;49.484;11.112;2023-07-13T00:39:58;3.25;;;2.05;;
6007;SDS011;3032;49.484;11.112;2023-07-13T00:42:24;2.03;;;1.70;;
6007;SDS011;3032;49.484;11.112;2023-07-13T00:45:06;3.70;;;1.70;;
6007;SDS011;3032;49.484;11.112;2023-07-13T00:47:38;2.33;;;2.22;;
6007;SDS011;3032;49.484;11.112;2023-07-13T00:50:06;3.95;;;1.75;;
6007;SDS011;3032;49.484;11.112;2023-07-13T00:52:41;1.80;;;1.70;;
6007;SDS011;3032;49.484;11.112;2023-07-13T00:55:10;1.85;;;1.70;;
6007;SDS011;3032;49.484;11.112;2023-07-13T00:57:37;1.88;;;1.77;;
6007;SDS011;3032;49.484;11.112;2023-07-13T01:00:04;3.07;;;1.87;;
6007;SDS011;3032;49.484;11.112;2023-07-13T01:02:39;3.00;;;2.10;;
6007;SDS011;3032;49.484;11.112;2023-07-13T01:05:10;4.40;;;2.25;;
6007;SDS011;3032;49.484;11.112;2023-07-13T01:07:42;3.17;;;1.80;;
6007;SDS011;3032;49.484;11.112;2023-07-13T01:10:09;1.83;;;1.73;;
6007;SDS011;3032;49.484;11.112;2023-07-13T01:12:39;1.75;;;1.65;;
6007;SDS011;3032;49.484;11.112;2023-07-13T01:15:32;3.10;;;1.90;;
6007;SDS011;3032;49.484;11.112;2023-07-13T01:18:12;6.32;;;1.95;;
6007;SDS011;3032;49.484;11.112;2023-07-13T01:20:41;2.10;;;1.90;;
6007;SDS011;3032;49.484;11.112;2023-07-13T01:23:08;2.95;;;2.10;;
6007;SDS011;3032;49.484;11.112;2023-07-13T01:25:35;2.30;;;2.10;;
6007;SDS011;3032;49.484;11.112;2023-07-13T01:28:05;2.10;;;2.00;;
6007;SDS011;3032;49.484;11.112;2023-07-13T01:30:34;1.60;;;1.50;;
6007;SDS011;3032;49.484;11.112;2023-07-13T01:33:05;2.85;;;1.73;;
6007;SDS011;3032;49.484;11.112;2023-07-13T01:35:34;5.57;;;2.17;;
6007;SDS011;3032;49.484;11.112;2023-07-13T01:38:00;3.45;;;1.92;;
6007;SDS011;3032;49.484;11.112;2023-07-13T01:40:27;3.75;;;1.80;;
6007;SDS011;3032;49.484;11.112;2023-07-13T01:42:53;2.58;;;2.25;;
6007;SDS011;3032;49.484;11.112;2023-07-13T01:45:19;1.93;;;1.83;;
6007;SDS011;3032;49.484;11.112;2023-07-13T01:47:45;3.07;;;2.50;;
6007;SDS011;3032;49.484;11.112;2023-07-13T01:50:10;2.07;;;1.87;;
6007;SDS011;3032;49.484;11.112;2023-07-13T01:52:36;2.70;;;2.40;;
6007;SDS011;3032;49.484;11.112;2023-07-13T01:55:02;1.90;;;1.67;;
6007;SDS011;3032;49.484;11.112;2023-07-13T01:57:28;5.18;;;1.95;;
6007;SDS011;3032;49.484;11.112;2023-07-13T01:59:53;5.10;;;2.33;;
6007;SDS011;3032;49.484;11.112;2023-07-13T02:02:19;1.83;;;1.73;;
6007;SDS011;3032;49.484;11.112;2023-07-13T02:04:44;3.03;;;2.07;;
6007;SDS011;3032;49.484;11.112;2023-07-13T02:07:10;1.67;;;1.57;;
6007;SDS011;3032;49.484;11.112;2023-07-13T02:09:36;3.20;;;2.90;;
6007;SDS011;3032;49.484;11.112;2023-07-13T02:12:02;2.30;;;2.10;;
6007;SDS011;3032;49.484;11.112;2023-07-13T02:14:28;2.75;;;1.90;;
6007;SDS011;3032;49.484;11.112;2023-07-13T02:16:53;1.97;;;1.87;;
6007;SDS011;3032;49.484;11.112;2023-07-13T02:19:19;2.30;;;1.80;;
6007;SDS011;3032;49.484;11.112;2023-07-13T02:21:45;3.00;;;1.53;;
6007;SDS011;3032;49.484;11.112;2023-07-13T02:24:10;6.10;;;2.00;;
6007;SDS011;3032;49.484;11.112;2023-07-13T02:26:42;3.95;;;2.00;;
6007;SDS011;3032;49.484;11.112;2023-07-13T02:29:08;2.08;;;1.90;;
6007;SDS011;3032;49.484;11.112;2023-07-13T02:31:33;2.40;;;2.20;;
6007;SDS011;3032;49.484;11.112;2023-07-13T02:34:00;2.75;;;2.05;;
6007;SDS011;3032;49.484;11.112;2023-07-13T02:36:26;2.60;;;2.40;;
6007;SDS011;3032;49.484;11.112;2023-07-13T02:38:52;3.97;;;2.00;;
6007;SDS011;3032;49.484;11.112;2023-07-13T02:41:18;1.90;;;1.80;;
6007;SDS011;3032;49.484;11.112;2023-07-13T02:43:43;4.63;;;2.20;;
6007;SDS011;3032;49.484;11.112;2023-07-13T02:46:09;5.13;;;2.07;;
6007;SDS011;3032;49.484;11.112;2023-07-13T02:48:35;3.77;;;2.43;;
6007;SDS011;3032;49.484;11.112;2023-07-13T02:51:02;2.35;;;2.10;;
6007;SDS011;3032;49.484;11.112;2023-07-13T02:53:28;3.20;;;2.80;;
6007;SDS011;3032;49.484;11.112;2023-07-13T02:55:54;1.73;;;1.63;;
6007;SDS011;3032;49.484;11.112;2023-07-13T02:58:19;4.40;;;2.17;;
6007;SDS011;3032;49.484;11.112;2023-07-13T03:00:46;4.45;;;2.30;;
6007;SDS011;3032;49.484;11.112;2023-07-13T03:03:13;3.10;;;2.30;;
6007;SDS011;3032;49.484;11.112;2023-07-13T03:05:40;3.05;;;2.33;;
6007;SDS011;3032;49.484;11.112;2023-07-13T03:08:07;2.40;;;2.20;;
6007;SDS011;3032;49.484;11.112;2023-07-13T03:10:33;2.78;;;2.22;;
6007;SDS011;3032;49.484;11.112;2023-07-13T03:12:59;2.87;;;2.10;;
6007;SDS011;3032;49.484;11.112;2023-07-13T03:15:24;3.23;;;2.07;;
6007;SDS011;3032;49.484;11.112;2023-07-13T03:17:50;4.80;;;1.70;;
6007;SDS011;3032;49.484;11.112;2023-07-13T03:20:15;2.30;;;2.20;;
6007;SDS011;3032;49.484;11.112;2023-07-13T03:22:41;4.10;;;2.67;;
6007;SDS011;3032;49.484;11.112;2023-07-13T03:25:07;3.83;;;2.03;;
6007;SDS011;3032;49.484;11.112;2023-07-13T03:27:33;2.70;;;2.17;;
6007;SDS011;3032;49.484;11.112;2023-07-13T03:29:58;2.97;;;2.70;;
6007;SDS011;3032;49.484;11.112;2023-07-13T03:32:24;2.20;;;2.07;;
6007;SDS011;3032;49.484;11.112;2023-07-13T03:34:49;6.57;;;2.77;;
6007;SDS011;3032;49.484;11.112;2023-07-13T03:37:15;5.60;;;2.70;;
6007;SDS011;3032;49.484;11.112;2023-07-13T03:39:41;2.77;;;2.60;;
6007;SDS011;3032;49.484;11.112;2023-07-13T03:42:07;3.58;;;2.50;;
6007;SDS011;3032;49.484;11.112;2023-07-13T03:44:32;3.50;;;2.13;;
6007;SDS011;3032;49.484;11.112;2023-07-13T03:46:58;3.87;;;2.20;;
6007;SDS011;3032;49.484;11.112;2023-07-13T03:49:23;3.10;;;2.80;;
6007;SDS011;3032;49.484;11.112;2023-07-13T03:51:49;2.97;;;2.50;;
6007;SDS011;3032;49.484;11.112;2023-07-13T03:54:14;2.50;;;2.30;;
6007;SDS011;3032;49.484;11.112;2023-07-13T03:56:40;2.50;;;2.30;;
6007;SDS011;3032;49.484;11.112;2023-07-13T03:59:06;2.30;;;2.10;;
6007;SDS011;3032;49.484;11.112;2023-07-13T04:01:31;2.93;;;2.63;;
6007;SDS011;3032;49.484;11.112;2023-07-13T04:03:57;5.00;;;2.40;;
6007;SDS011;3032;49.484;11.112;2023-07-13T04:06:27;2.47;;;2.10;;
6007;SDS011;3032;49.484;11.112;2023-07-13T04:08:58;2.40;;;2.20;;
6007;SDS011;3032;49.484;11.112;2023-07-13T04:11:27;2.95;;;2.10;;
6007;SDS011;3032;49.484;11.112;2023-07-13T04:13:54;6.25;;;2.70;;
6007;SDS011;3032;49.484;11.112;2023-07-13T04:16:20;3.80;;;2.63;;
6007;SDS011;3032;49.484;11.112;2023-07-13T04:18:46;2.70;;;2.27;;
6007;SDS011;3032;49.484;11.112;2023-07-13T04:21:12;3.72;;;2.17;;
6007;SDS011;3032;49.484;11.112;2023-07-13T04:23:39;4.28;;;2.60;;
6007;SDS011;3032;49.484;11.112;2023-07-13T04:26:05;2.58;;;2.35;;
6007;SDS011;3032;49.484;11.112;2023-07-13T04:28:31;3.42;;;2.20;;
6007;SDS011;3032;49.484;11.112;2023-07-13T04:33:52;2.90;;;2.70;;
6007;SDS011;3032;49.484;11.112;2023-07-13T04:36:18;2.78;;;2.20;;
6007;SDS011;3032;49.484;11.112;2023-07-13T04:38:43;4.17;;;2.33;;
6007;SDS011;3032;49.484;11.112;2023-07-13T04:41:09;7.03;;;2.20;;
6007;SDS011;3032;49.484;11.112;2023-07-13T04:43:35;3.37;;;1.63;;
6007;SDS011;3032;49.484;11.112;2023-07-13T04:46:05;3.75;;;2.33;;
6007;SDS011;3032;49.484;11.112;2023-07-13T04:48:35;2.70;;;2.50;;
6007;SDS011;3032;49.484;11.112;2023-07-13T04:51:01;2.37;;;2.17;;
6007;SDS011;3032;49.484;11.112;2023-07-13T04:53:27;4.00;;;2.17;;
6007;SDS011;3032;49.484;11.112;2023-07-13T04:55:53;2.58;;;2.25;;
6007;SDS011;3032;49.484;11.112;2023-07-13T04:58:19;3.37;;;1.90;;
6007;SDS011;3032;49.484;11.112;2023-07-13T05:00:46;2.92;;;2.00;;
6007;SDS011;3032;49.484;11.112;2023-07-13T05:03:12;2.17;;;1.90;;
6007;SDS011;3032;49.484;11.112;2023-07-13T05:05:37;2.60;;;1.63;;
6007;SDS011;3032;49.484;11.112;2023-07-13T05:08:03;1.70;;;1.60;;
6007;SDS011;3032;49.484;11.112;2023-07-13T05:10:29;6.93;;;1.70;;
6007;SDS011;3032;49.484;11.112;2023-07-13T05:12:54;3.57;;;2.07;;
6007;SDS011;3032;49.484;11.112;2023-07-13T05:18:42;5.53;;;2.08;;
6007;SDS011;3032;49.484;11.112;2023-07-13T05:21:08;2.70;;;1.80;;
6007;SDS011;3032;49.484;11.112;2023-07-13T05:23:35;3.63;;;1.60;;
6007;SDS011;3032;49.484;11.112;2023-07-13T05:29:01;9.77;;;1.50;;
6007;SDS011;3032;49.484;11.112;2023-07-13T05:31:27;2.33;;;1.83;;
6007;SDS011;3032;49.484;11.112;2023-07-13T05:33:53;1.60;;;1.50;;
6007;SDS011;3032;49.484;11.112;2023-07-13T05:36:18;4.07;;;1.67;;
6007;SDS011;3032;49.484;11.112;2023-07-13T05:38:44;5.10;;;1.70;;
6007;SDS011;3032;49.484;11.112;2023-07-13T05:41:09;3.03;;;1.37;;
6007;SDS011;3032;49.484;11.112;2023-07-13T05:43:35;4.17;;;1.87;;
6007;SDS011;3032;49.484;11.112;2023-07-13T05:46:00;4.17;;;1.67;;
6007;SDS011;3032;49.484;11.112;2023-07-13T05:48:26;2.70;;;1.70;;
6007;SDS011;3032;49.484;11.112;2023-07-13T05:50:52;2.00;;;1.80;;
6007;SDS011;3032;49.484;11.112;2023-07-13T05:53:17;2.13;;;1.60;;
6007;SDS011;3032;49.484;11.112;2023-07-13T05:55:43;3.67;;;1.60;;
6007;SDS011;3032;49.484;11.112;2023-07-13T05:58:12;3.20;;;1.65;;
6007;SDS011;3032;49.484;11.112;2023-07-13T06:00:39;4.90;;;1.80;;
6007;SDS011;3032;49.484;11.112;2023-07-13T06:03:05;2.28;;;1.80;;
6007;SDS011;3032;49.484;11.112;2023-07-13T06:05:32;2.08;;;1.75;;
6007;SDS011;3032;49.484;11.112;2023-07-13T06:07:59;4.70;;;1.73;;
6007;SDS011;3032;49.484;11.112;2023-07-13T06:10:25;2.80;;;1.63;;
6007;SDS011;3032;49.484;11.112;2023-07-13T06:12:50;5.87;;;1.67;;
6007;SDS011;3032;49.484;11.112;2023-07-13T06:15:16;2.73;;;1.93;;
6007;SDS011;3032;49.484;11.112;2023-07-13T06:17:42;2.70;;;1.70;;
6007;SDS011;3032;49.484;11.112;2023-07-13T06:20:08;2.83;;;1.45;;
6007;SDS011;3032;49.484;11.112;2023-07-13T06:22:34;3.20;;;1.40;;
6007;SDS011;3032;49.484;11.112;2023-07-13T06:25:00;6.37;;;2.23;;
6007;SDS011;3032;49.484;11.112;2023-07-13T06:27:25;3.13;;;1.57;;
6007;SDS011;3032;49.484;11.112;2023-07-13T06:29:51;3.70;;;1.73;;
6007;SDS011;3032;49.484;11.112;2023-07-13T06:32:16;2.27;;;1.70;;
6007;SDS011;3032;49.484;11.112;2023-07-13T06:34:42;2.80;;;1.53;;
6007;SDS011;3032;49.484;11.112;2023-07-13T06:37:08;1.70;;;1.43;;
6007;SDS011;3032;49.484;11.112;2023-07-13T06:39:34;2.95;;;1.33;;
6007;SDS011;3032;49.484;11.112;2023-07-13T06:42:00;1.80;;;1.70;;
6007;SDS011;3032;49.484;11.112;2023-07-13T06:44:25;1.63;;;1.40;;
6007;SDS011;3032;49.484;11.112;2023-07-13T06:46:51;1.40;;;1.20;;
6007;SDS011;3032;49.484;11.112;2023-07-13T06:49:16;3.37;;;1.77;;
6007;SDS011;3032;49.484;11.112;2023-07-13T06:51:42;2.30;;;1.53;;
6007;SDS011;3032;49.484;11.112;2023-07-13T06:54:07;2.80;;;1.47;;
6007;SDS011;3032;49.484;11.112;2023-07-13T06:56:33;3.60;;;2.03;;
6007;SDS011;3032;49.484;11.112;2023-07-13T06:58:59;1.80;;;1.50;;
6007;SDS011;3032;49.484;11.112;2023-07-13T07:01:24;2.60;;;1.30;;
6007;SDS011;3032;49.484;11.112;2023-07-13T07:03:50;2.00;;;1.43;;
6007;SDS011;3032;49.484;11.112;2023-07-13T07:06:17;3.53;;;1.70;;
6007;SDS011;3032;49.484;11.112;2023-07-13T07:08:44;2.58;;;1.70;;
6007;SDS011;3032;49.484;11.112;2023-07-13T07:11:12;1.80;;;1.70;;
6007;SDS011;3032;49.484;11.112;2023-07-13T07:13:39;1.90;;;1.63;;
6007;SDS011;3032;49.484;11.112;2023-07-13T07:16:05;3.47;;;1.37;;
6007;SDS011;3032;49.484;11.112;2023-07-13T07:18:31;2.20;;;1.27;;
6007;SDS011;3032;49.484;11.112;2023-07-13T07:20:57;3.37;;;1.47;;
6007;SDS011;3032;49.484;11.112;2023-07-13T07:23:23;3.43;;;1.50;;
6007;SDS011;3032;49.484;11.112;2023-07-13T07:25:48;5.63;;;1.30;;
6007;SDS011;3032;49.484;11.112;2023-07-13T07:28:15;6.87;;;1.87;;
6007;SDS011;3032;49.484;11.112;2023-07-13T07:30:43;5.68;;;2.08;;
6007;SDS011;3032;49.484;11.112;2023-07-13T07:33:12;5.22;;;1.45;;
6007;SDS011;3032;49.484;11.112;2023-07-13T07:35:38;2.17;;;1.65;;
6007;SDS011;3032;49.484;11.112;2023-07-13T07:38:04;2.67;;;1.60;;
6007;SDS011;3032;49.484;11.112;2023-07-13T07:40:29;2.20;;;2.00;;
6007;SDS011;3032;49.484;11.112;2023-07-13T07:42:56;3.72;;;1.80;;
6007;SDS011;3032;49.484;11.112;2023-07-13T07:45:22;2.20;;;1.75;;
6007;SDS011;3032;49.484;11.112;2023-07-13T07:47:48;3.70;;;1.30;;
6007;SDS011;3032;49.484;11.112;2023-07-13T07:50:14;2.95;;;1.25;;
6007;SDS011;3032;49.484;11.112;2023-07-13T07:52:40;7.03;;;1.43;;
6007;SDS011;3032;49.484;11.112;2023-07-13T07:55:06;4.63;;;1.40;;
6007;SDS011;3032;49.484;11.112;2023-07-13T07:57:33;3.45;;;1.20;;
6007;SDS011;3032;49.484;11.112;2023-07-13T07:59:59;3.10;;;1.48;;
6007;SDS011;3032;49.484;11.112;2023-07-13T08:02:25;6.00;;;1.63;;
6007;SDS011;3032;49.484;11.112;2023-07-13T08:04:51;3.95;;;1.27;;
6007;SDS011;3032;49.484;11.112;2023-07-13T08:07:17;1.55;;;1.30;;
6007;SDS011;3032;49.484;11.112;2023-07-13T08:09:43;3.03;;;1.50;;
6007;SDS011;3032;49.484;11.112;2023-07-13T08:12:08;2.40;;;1.10;;
6007;SDS011;3032;49.484;11.112;2023-07-13T08:14:34;1.90;;;1.30;;
6007;SDS011;3032;49.484;11.112;2023-07-13T08:17:00;3.37;;;1.10;;
6007;SDS011;3032;49.484;11.112;2023-07-13T08:19:25;2.67;;;1.30;;
6007;SDS011;3032;49.484;11.112;2023-07-13T08:21:51;2.20;;;1.60;;
6007;SDS011;3032;49.484;11.112;2023-07-13T08:24:16;1.10;;;1.00;;
6007;SDS011;3032;49.484;11.112;2023-07-13T08:26:43;1.33;;;1.10;;
6007;SDS011;3032;49.484;11.112;2023-07-13T08:29:11;1.52;;;1.05;;
6007;SDS011;3032;49.484;11.112;2023-07-13T08:31:36;1.83;;;1.03;;
6007;SDS011;3032;49.484;11.112;2023-07-13T08:34:02;2.10;;;1.07;;
6007;SDS011;3032;49.484;11.112;2023-07-13T08:36:28;1.23;;;1.00;;
6007;SDS011;3032;49.484;11.112;2023-07-13T08:38:54;1.33;;;1.20;;
6007;SDS011;3032;49.484;11.112;2023-07-13T08:41:20;0.87;;;0.87;;
6007;SDS011;3032;49.484;11.112;2023-07-13T08:43:47;1.30;;;1.20;;
6007;SDS011;3032;49.484;11.112;2023-07-13T08:48:50;1.10;;;1.00;;
6007;SDS011;3032;49.484;11.112;2023-07-13T08:51:26;1.17;;;1.07;;
6007;SDS011;3032;49.484;11.112;2023-07-13T08:54:03;1.20;;;1.10;;
6007;SDS011;3032;49.484;11.112;2023-07-13T08:56:35;1.25;;;1.15;;
6007;SDS011;3032;49.484;11.112;2023-07-13T08:59:06;2.80;;;1.10;;
6007;SDS011;3032;49.484;11.112;2023-07-13T09:04:40;1.57;;;0.90;;
6007;SDS011;3032;49.484;11.112;2023-07-13T09:07:26;2.80;;;0.80;;
6007;SDS011;3032;49.484;11.112;2023-07-13T09:10:09;1.20;;;1.00;;
6007;SDS011;3032;49.484;11.112;2023-07-13T09:15:19;2.20;;;0.97;;
6007;SDS011;3032;49.484;11.112;2023-07-13T09:17:48;1.90;;;0.87;;
6007;SDS011;3032;49.484;11.112;2023-07-13T09:23:01;2.27;;;1.07;;
6007;SDS011;3032;49.484;11.112;2023-07-13T09:25:31;2.00;;;0.97;;
6007;SDS011;3032;49.484;11.112;2023-07-13T09:33:20;1.17;;;1.03;;
6007;SDS011;3032;49.484;11.112;2023-07-13T09:35:46;1.57;;;0.90;;
6007;SDS011;3032;49.484;11.112;2023-07-13T09:38:13;1.30;;;1.20;;
6007;SDS011;3032;49.484;11.112;2023-07-13T09:40:44;3.63;;;1.20;;
6007;SDS011;3032;49.484;11.112;2023-07-13T09:43:21;1.33;;;1.23;;
6007;SDS011;3032;49.484;11.112;2023-07-13T09:45:47;1.30;;;0.93;;
6007;SDS011;3032;49.484;11.112;2023-07-13T09:48:13;1.50;;;0.93;;
6007;SDS011;3032;49.484;11.112;2023-07-13T09:50:40;1.10;;;0.97;;
6007;SDS011;3032;49.484;11.112;2023-07-13T09:53:17;2.13;;;1.17;;
6007;SDS011;3032;49.484;11.112;2023-07-13T09:55:44;1.10;;;1.10;;
6007;SDS011;3032;49.484;11.112;2023-07-13T09:58:12;0.80;;;0.80;;
6007;SDS011;3032;49.484;11.112;2023-07-13T10:00:40;2.43;;;1.20;;
6007;SDS011;3032;49.484;11.112;2023-07-13T10:03:22;4.60;;;1.23;;
6007;SDS011;3032;49.484;11.112;2023-07-13T10:05:51;2.20;;;1.30;;
6007;SDS011;3032;49.484;11.112;2023-07-13T10:08:18;1.33;;;1.23;;
6007;SDS011;3032;49.484;11.112;2023-07-13T10:10:59;1.50;;;1.40;;
6007;SDS011;3032;49.484;11.112;2023-07-13T10:13:40;1.60;;;1.17;;
6007;SDS011;3032;49.484;11.112;2023-07-13T10:16:10;1.53;;;1.00;;
6007;SDS011;3032;49.484;11.112;2023-07-13T10:18:39;2.30;;;1.40;;
6007;SDS011;3032;49.484;11.112;2023-07-13T10:21:12;3.83;;;0.90;;
6007;SDS011;3032;49.484;11.112;2023-07-13T10:23:40;3.43;;;1.10;;
6007;SDS011;3032;49.484;11.112;2023-07-13T10:26:09;1.30;;;1.20;;
6007;SDS011;3032;49.484;11.112;2023-07-13T10:28:40;5.13;;;1.10;;
6007;SDS011;3032;49.484;11.112;2023-07-13T10:31:10;0.87;;;0.87;;
6007;SDS011;3032;49.484;11.112;2023-07-13T10:33:38;1.67;;;1.10;;
6007;SDS011;3032;49.484;11.112;2023-07-13T10:38:35;1.80;;;1.20;;
6007;SDS011;3032;49.484;11.112;2023-07-13T10:41:05;5.00;;;1.10;;
6007;SDS011;3032;49.484;11.112;2023-07-13T10:43:54;4.20;;;1.00;;
6007;SDS011;3032;49.484;11.112;2023-07-13T10:46:22;1.97;;;1.33;;
6007;SDS011;3032;49.484;11.112;2023-07-13T10:48:53;1.20;;;1.10;;
6007;SDS011;3032;49.484;11.112;2023-07-13T10:51:22;1.73;;;1.00;;
6007;SDS011;3032;49.484;11.112;2023-07-13T10:54:11;1.67;;;1.47;;
6007;SDS011;3032;49.484;11.112;2023-07-13T10:56:42;1.20;;;1.10;;
6007;SDS011;3032;49.484;11.112;2023-07-13T11:01:49;1.30;;;1.20;;
6007;SDS011;3032;49.484;11.112;2023-07-13T11:04:25;1.02;;;1.02;;
6007;SDS011;3032;49.484;11.112;2023-07-13T11:07:09;1.85;;;1.27;;
6007;SDS011;3032;49.484;11.112;2023-07-13T11:09:42;2.03;;;1.15;;
6007;SDS011;3032;49.484;11.112;2023-07-13T11:25:31;6.53;;;1.20;;
6007;SDS011;3032;49.484;11.112;2023-07-13T11:30:32;5.00;;;1.13;;
6007;SDS011;3032;49.484;11.112;2023-07-13T11:35:38;4.88;;;2.20;;
6007;SDS011;3032;49.484;11.112;2023-07-13T11:38:31;6.13;;;1.70;;
6007;SDS011;3032;49.484;11.112;2023-07-13T11:41:01;6.05;;;1.50;;
6007;SDS011;3032;49.484;11.112;2023-07-13T11:43:30;2.80;;;1.63;;
6007;SDS011;3032;49.484;11.112;2023-07-13T11:45:55;1.53;;;1.40;;
6007;SDS011;3032;49.484;11.112;2023-07-13T11:48:22;8.00;;;1.80;;
6007;SDS011;3032;49.484;11.112;2023-07-13T11:50:59;3.35;;;1.85;;
6007;SDS011;3032;49.484;11.112;2023-07-13T11:53:29;1.98;;;1.13;;
6007;SDS011;3032;49.484;11.112;2023-07-13T11:56:02;2.17;;;1.30;;
6007;SDS011;3032;49.484;11.112;2023-07-13T11:58:28;2.80;;;1.38;;
6007;SDS011;3032;49.484;11.112;2023-07-13T12:00:55;3.40;;;1.33;;
6007;SDS011;3032;49.484;11.112;2023-07-13T12:03:24;2.08;;;1.42;;
6007;SDS011;3032;49.484;11.112;2023-07-13T12:06:01;2.97;;;1.38;;
6007;SDS011;3032;49.484;11.112;2023-07-13T12:08:28;1.45;;;1.13;;
6007;SDS011;3032;49.484;11.112;2023-07-13T12:10:58;2.13;;;1.90;;
6007;SDS011;3032;49.484;11.112;2023-07-13T12:13:26;2.65;;;1.27;;
6007;SDS011;3032;49.484;11.112;2023-07-13T12:15:53;2.75;;;1.60;;
6007;SDS011;3032;49.484;11.112;2023-07-13T12:18:21;1.15;;;1.05;;
6007;SDS011;3032;49.484;11.112;2023-07-13T12:20:49;2.60;;;1.17;;
6007;SDS011;3032;49.484;11.112;2023-07-13T12:23:22;1.50;;;1.10;;
6007;SDS011;3032;49.484;11.112;2023-07-13T12:25:51;2.58;;;1.15;;
6007;SDS011;3032;49.484;11.112;2023-07-13T12:28:21;2.58;;;1.25;;
6007;SDS011;3032;49.484;11.112;2023-07-13T12:31:00;1.70;;;1.10;;
6007;SDS011;3032;49.484;11.112;2023-07-13T12:33:30;0.98;;;0.98;;
6007;SDS011;3032;49.484;11.112;2023-07-13T12:35:58;1.92;;;1.30;;
6007;SDS011;3032;49.484;11.112;2023-07-13T12:38:26;2.55;;;1.30;;
6007;SDS011;3032;49.484;11.112;2023-07-13T12:40:52;1.53;;;1.40;;
6007;SDS011;3032;49.484;11.112;2023-07-13T12:43:19;3.53;;;1.40;;
6007;SDS011;3032;49.484;11.112;2023-07-13T12:46:00;1.40;;;1.20;;
6007;SDS011;3032;49.484;11.112;2023-07-13T12:48:28;3.00;;;1.08;;
6007;SDS011;3032;49.484;11.112;2023-07-13T12:50:54;8.37;;;1.50;;
6007;SDS011;3032;49.484;11.112;2023-07-13T12:53:22;2.38;;;1.30;;
6007;SDS011;3032;49.484;11.112;2023-07-13T12:55:49;1.23;;;1.13;;
6007;SDS011;3032;49.484;11.112;2023-07-13T12:58:37;2.13;;;1.20;;
6007;SDS011;3032;49.484;11.112;2023-07-13T13:01:09;1.90;;;1.25;;
6007;SDS011;3032;49.484;11.112;2023-07-13T13:03:38;2.70;;;1.10;;
6007;SDS011;3032;49.484;11.112;2023-07-13T13:08:45;1.50;;;1.40;;
6007;SDS011;3032;49.484;11.112;2023-07-13T13:11:13;2.15;;;1.67;;
6007;SDS011;3032;49.484;11.112;2023-07-13T13:13:41;3.17;;;1.60;;
6007;SDS011;3032;49.484;11.112;2023-07-13T13:16:12;2.88;;;1.52;;
6007;SDS011;3032;49.484;11.112;2023-07-13T13:18:45;2.05;;;1.42;;
6007;SDS011;3032;49.484;11.112;2023-07-13T13:21:11;1.73;;;1.60;;
6007;SDS011;3032;49.484;11.112;2023-07-13T13:23:37;6.10;;;1.90;;
6007;SDS011;3032;49.484;11.112;2023-07-13T13:26:05;2.80;;;1.38;;
6007;SDS011;3032;49.484;11.112;2023-07-13T13:28:35;1.60;;;1.20;;
6007;SDS011;3032;49.484;11.112;2023-07-13T13:31:01;2.13;;;1.60;;
6007;SDS011;3032;49.484;11.112;2023-07-13T13:33:27;3.90;;;1.80;;
6007;SDS011;3032;49.484;11.112;2023-07-13T13:35:52;2.37;;;1.20;;
6007;SDS011;3032;49.484;11.112;2023-07-13T13:38:24;2.10;;;1.37;;
6007;SDS011;3032;49.484;11.112;2023-07-13T13:40:51;1.92;;;1.50;;
6007;SDS011;3032;49.484;11.112;2023-07-13T13:43:18;2.00;;;1.45;;
6007;SDS011;3032;49.484;11.112;2023-07-13T13:45:50;1.80;;;1.33;;
6007;SDS011;3032;49.484;11.112;2023-07-13T13:48:18;4.05;;;1.58;;
6007;SDS011;3032;49.484;11.112;2023-07-13T13:50:55;1.60;;;1.33;;
6007;SDS011;3032;49.484;11.112;2023-07-13T13:53:21;3.15;;;1.45;;
6007;SDS011;3032;49.484;11.112;2023-07-13T13:55:48;2.65;;;1.40;;
6007;SDS011;3032;49.484;11.112;2023-07-13T13:58:14;1.73;;;1.20;;
6007;SDS011;3032;49.484;11.112;2023-07-13T14:00:40;2.60;;;1.10;;
6007;SDS011;3032;49.484;11.112;2023-07-13T14:03:14;1.55;;;1.20;;
6007;SDS011;3032;49.484;11.112;2023-07-13T14:05:41;2.85;;;1.50;;
6007;SDS011;3032;49.484;11.112;2023-07-13T14:08:17;1.40;;;1.30;;
6007;SDS011;3032;49.484;11.112;2023-07-13T14:10:44;2.15;;;1.10;;
6007;SDS011;3032;49.484;11.112;2023-07-13T14:13:20;1.77;;;1.00;;
6007;SDS011;3032;49.484;11.112;2023-07-13T14:15:48;2.85;;;1.20;;
6007;SDS011;3032;49.484;11.112;2023-07-13T14:18:14;6.60;;;1.50;;
6007;SDS011;3032;49.484;11.112;2023-07-13T14:20:43;3.45;;;1.35;;
6007;SDS011;3032;49.484;11.112;2023-07-13T14:23:10;1.80;;;1.50;;
6007;SDS011;3032;49.484;11.112;2023-07-13T14:25:37;2.00;;;1.30;;
6007;SDS011;3032;49.484;11.112;2023-07-13T14:28:46;3.07;;;1.90;;
6007;SDS011;3032;49.484;11.112;2023-07-13T14:30:53;5.10;;;1.50;;
6007;SDS011;3032;49.484;11.112;2023-07-13T14:33:22;1.83;;;1.60;;
6007;SDS011;3032;49.484;11.112;2023-07-13T14:35:48;1.50;;;1.40;;
6007;SDS011;3032;49.484;11.112;2023-07-13T14:38:15;1.88;;;1.60;;
6007;SDS011;3032;49.484;11.112;2023-07-13T14:40:43;3.85;;;1.30;;
6007;SDS011;3032;49.484;11.112;2023-07-13T14:43:09;2.60;;;1.70;;
6007;SDS011;3032;49.484;11.112;2023-07-13T14:45:40;3.90;;;1.40;;
6007;SDS011;3032;49.484;11.112;2023-07-13T14:48:13;2.55;;;1.30;;
6007;SDS011;3032;49.484;11.112;2023-07-13T14:50:41;2.55;;;1.20;;
6007;SDS011;3032;49.484;11.112;2023-07-13T14:53:09;2.20;;;1.87;;
6007;SDS011;3032;49.484;11.112;2023-07-13T14:55:36;5.32;;;1.35;;
6007;SDS011;3032;49.484;11.112;2023-07-13T14:58:02;1.93;;;1.33;;
6007;SDS011;3032;49.484;11.112;2023-07-13T15:00:28;1.93;;;1.73;;
6007;SDS011;3032;49.484;11.112;2023-07-13T15:02:54;3.90;;;1.80;;
6007;SDS011;3032;49.484;11.112;2023-07-13T15:05:23;2.17;;;1.33;;
6007;SDS011;3032;49.484;11.112;2023-07-13T15:07:51;1.40;;;1.30;;
6007;SDS011;3032;49.484;11.112;2023-07-13T15:10:19;1.45;;;1.33;;
6007;SDS011;3032;49.484;11.112;2023-07-13T15:12:47;5.40;;;1.40;;
6007;SDS011;3032;49.484;11.112;2023-07-13T15:15:12;1.80;;;1.70;;
6007;SDS011;3032;49.484;11.112;2023-07-13T15:17:39;2.72;;;1.60;;
6007;SDS011;3032;49.484;11.112;2023-07-13T15:20:15;3.58;;;1.70;;
6007;SDS011;3032;49.484;11.112;2023-07-13T15:22:48;2.28;;;1.65;;
6007;SDS011;3032;49.484;11.112;2023-07-13T15:25:16;2.23;;;1.43;;
6007;SDS011;3032;49.484;11.112;2023-07-13T15:27:43;2.28;;;1.58;;
6007;SDS011;3032;49.484;11.112;2023-07-13T15:30:09;1.70;;;1.60;;
6007;SDS011;3032;49.484;11.112;2023-07-13T15:32:35;2.90;;;1.48;;
6007;SDS011;3032;49.484;11.112;2023-07-13T15:35:00;1.83;;;1.73;;
6007;SDS011;3032;49.484;11.112;2023-07-13T15:37:26;2.13;;;1.50;;
6007;SDS011;3032;49.484;11.112;2023-07-13T15:39:51;3.17;;;1.77;;
6007;SDS011;3032;49.484;11.112;2023-07-13T15:42:18;5.20;;;1.70;;
6007;SDS011;3032;49.484;11.112;2023-07-13T15:44:45;3.83;;;1.42;;
6007;SDS011;3032;49.484;11.112;2023-07-13T15:47:12;3.53;;;2.17;;
6007;SDS011;3032;49.484;11.112;2023-07-13T15:49:39;2.67;;;1.73;;
6007;SDS011;3032;49.484;11.112;2023-07-13T15:52:08;1.83;;;1.45;;
6007;SDS011;3032;49.484;11.112;2023-07-13T15:54:44;2.92;;;1.70;;
6007;SDS011;3032;49.484;11.112;2023-07-13T15:57:12;11.32;;;1.98;;